Time;durP1;ratioP1;P1;durP2;ratioP2;P2;SDS_P1;SDS_P2;PMS_P1;PMS_P2;Temp;Humidity;BMP_temperature;BMP_pressure;BME280_temperature;BME280_humidity;BME280_pressure;Samples;Min_cycle;Max_cycle;Signal;HPM_P1;HPM_P2
2022/09/25 00:01:50;;;;;;;8.68;3.65;;;10.40;99.90;;;;;;5029409;28;20044;-80
2022/09/25 00:04:15;;;;;;;7.57;3.65;;;10.50;99.90;;;;;;5036597;28;20037;-80
2022/09/25 00:06:41;;;;;;;7.22;3.70;;;10.40;99.90;;;;;;5021733;28;20086;-81
2022/09/25 00:09:07;;;;;;;8.18;3.33;;;10.40;99.90;;;;;;5054513;28;20040;-81
2022/09/25 00:11:33;;;;;;;10.38;3.10;;;10.30;99.90;;;;;;5006722;28;20037;-80
2022/09/25 00:14:00;;;;;;;7.47;3.47;;;10.30;99.90;;;;;;5022660;28;20036;-81
2022/09/25 00:16:29;;;;;;;9.27;3.33;;;10.60;99.90;;;;;;5036023;28;20040;-80
2022/09/25 00:21:44;;;;;;;7.10;3.20;;;10.30;99.90;;;;;;5054320;28;20131;-80
2022/09/25 00:24:12;;;;;;;9.07;3.35;;;10.20;99.90;;;;;;5038618;28;20404;-80
2022/09/25 00:26:40;;;;;;;11.68;3.33;;;10.30;99.90;;;;;;5037172;28;20123;-81
2022/09/25 00:29:09;;;;;;;9.25;3.25;;;10.20;99.90;;;;;;5054159;28;20044;-80
2022/09/25 00:31:35;;;;;;;7.15;3.05;;;10.20;99.90;;;;;;5042137;28;20047;-81
2022/09/25 00:34:03;;;;;;;8.43;3.10;;;10.20;99.90;;;;;;5026232;28;20045;-80
2022/09/25 00:36:31;;;;;;;6.93;3.15;;;10.20;99.90;;;;;;5052047;28;20040;-80
2022/09/25 00:38:58;;;;;;;8.00;2.92;;;10.20;99.90;;;;;;5058842;28;20040;-81
2022/09/25 00:41:26;;;;;;;8.35;3.00;;;10.20;99.90;;;;;;5054078;28;21223;-80
2022/09/25 00:43:56;;;;;;;7.05;3.15;;;10.10;99.90;;;;;;5024871;28;20048;-80
2022/09/25 00:46:31;;;;;;;6.10;2.88;;;10.10;99.90;;;;;;5018752;28;20040;-80
2022/09/25 00:49:13;;;;;;;6.95;3.00;;;10.10;99.90;;;;;;5052747;28;20388;-80
2022/09/25 00:51:46;;;;;;;9.57;3.05;;;10.10;99.90;;;;;;5039057;28;20090;-80
2022/09/25 00:54:18;;;;;;;10.10;2.90;;;10.10;99.90;;;;;;5037631;28;20044;-79
2022/09/25 00:56:46;;;;;;;5.80;2.55;;;10.10;99.90;;;;;;5050335;28;20036;-79
2022/09/25 00:59:19;;;;;;;8.40;2.97;;;10.10;99.90;;;;;;5037842;28;20051;-79
2022/09/25 01:01:46;;;;;;;7.78;3.05;;;10.00;99.90;;;;;;5044112;28;20116;-79
2022/09/25 01:04:13;;;;;;;7.00;3.10;;;10.00;99.90;;;;;;5034884;28;20044;-82
2022/09/25 01:06:40;;;;;;;9.30;3.15;;;10.00;99.90;;;;;;5037835;28;20048;-79
2022/09/25 01:09:06;;;;;;;12.20;3.42;;;10.00;99.90;;;;;;5056912;28;20051;-80
2022/09/25 01:11:32;;;;;;;5.95;3.10;;;10.00;99.90;;;;;;5039212;28;20036;-80
2022/09/25 01:18:30;;;;;;;10.27;3.40;;;10.00;99.90;;;;;;4963863;28;20051;-80
2022/09/25 01:21:29;;;;;;;8.77;3.33;;;10.00;99.90;;;;;;4940525;28;20039;-80
2022/09/25 01:24:29;;;;;;;9.25;3.50;;;10.00;99.90;;;;;;4921672;29;20053;-80
2022/09/25 01:30:32;;;;;;;8.45;3.10;;;9.90;99.90;;;;;;4958588;28;20114;-80
2022/09/25 01:36:37;;;;;;;;;;;;;;;;;;;;;
2022/09/25 01:42:30;;;;;;;7.22;3.05;;;9.90;99.90;;;;;;5043143;28;20047;-79
2022/09/25 01:45:09;;;;;;;6.53;2.80;;;9.80;99.90;;;;;;5015973;28;20060;-79
2022/09/25 01:47:43;;;;;;;6.93;3.00;;;9.80;99.90;;;;;;5049919;28;20041;-80
2022/09/25 01:53:20;;;;;;;8.15;3.00;;;9.80;99.90;;;;;;5049691;28;20115;-79
2022/09/25 02:04:02;;;;;;;6.97;2.65;;;9.80;99.90;;;;;;5000283;28;20281;-79
2022/09/25 02:06:50;;;;;;;8.82;2.47;;;9.70;99.90;;;;;;4987139;28;20426;-79
2022/09/25 02:12:45;;;;;;;6.00;2.53;;;9.70;99.90;;;;;;5083330;28;20044;-79
2022/09/25 02:15:39;;;;;;;6.07;2.70;;;9.70;99.90;;;;;;5055836;28;20047;-80
2022/09/25 02:21:22;;;;;;;7.28;2.55;;;9.70;99.90;;;;;;5053343;28;20111;-79
2022/09/25 02:31:05;;;;;;;;;;;;;;;;;;;;;
2022/09/25 02:34:07;;;;;;;8.13;2.60;;;9.60;99.90;;;;;;5031790;28;20037;-80
2022/09/25 02:36:55;;;;;;;7.63;2.88;;;9.60;99.90;;;;;;5019713;28;20049;-79
2022/09/25 02:39:50;;;;;;;9.57;2.40;;;9.60;99.90;;;;;;5018996;28;20190;-80
2022/09/25 02:46:03;;;;;;;5.35;2.50;;;9.60;99.90;;;;;;4968800;28;20042;-81
2022/09/25 02:49:37;;;;;;;6.07;2.10;;;9.60;99.90;;;;;;4988838;28;20054;-79
2022/09/25 02:53:21;;;;;;;6.43;2.58;;;9.60;99.90;;;;;;4973487;28;20045;-79
2022/09/25 02:59:23;;;;;;;7.07;2.40;;;9.50;99.90;;;;;;4898921;29;20044;-79
2022/09/25 03:02:47;;;;;;;6.93;2.40;;;9.50;99.90;;;;;;4938965;28;20165;-80
2022/09/25 03:08:45;;;;;;;4.03;2.30;;;9.50;99.90;;;;;;4926782;29;20044;-80
2022/09/25 03:11:20;;;;;;;4.35;2.17;;;9.50;99.90;;;;;;4926977;29;20052;-79
2022/09/25 03:14:18;;;;;;;5.15;2.78;;;9.50;99.90;;;;;;4940047;28;20070;-80
2022/09/25 03:26:44;;;;;;;6.63;3.00;;;9.40;99.90;;;;;;4955877;28;20042;-80
2022/09/25 03:29:11;;;;;;;8.55;3.00;;;9.40;99.90;;;;;;4951220;28;20105;-79
2022/09/25 03:31:44;;;;;;;7.05;2.60;;;9.40;99.90;;;;;;4984620;28;20047;-79
2022/09/25 03:34:40;;;;;;;6.95;2.72;;;9.40;99.90;;;;;;4939554;28;20049;-80
2022/09/25 03:40:28;;;;;;;6.20;2.70;;;9.40;99.90;;;;;;4996646;28;20056;-80
2022/09/25 03:43:08;;;;;;;5.45;2.92;;;9.40;99.90;;;;;;4958512;28;20042;-80
2022/09/25 03:45:50;;;;;;;8.85;2.90;;;9.40;99.90;;;;;;4962125;28;20034;-80
2022/09/25 03:54:09;;;;;;;6.78;2.80;;;9.40;99.90;;;;;;4970773;28;20449;-80
2022/09/25 03:57:13;;;;;;;6.13;2.45;;;9.40;99.90;;;;;;4974219;28;20051;-80
2022/09/25 04:02:37;;;;;;;7.03;2.80;;;9.40;99.90;;;;;;5011299;28;20043;-80
2022/09/25 04:05:25;;;;;;;7.15;2.72;;;9.40;99.90;;;;;;5050484;28;20068;-80
2022/09/25 04:08:35;;;;;;;8.30;3.38;;;9.40;99.90;;;;;;5017456;28;20072;-80
2022/09/25 04:11:55;;;;;;;7.38;3.30;;;9.40;99.90;;;;;;5048772;28;20467;-80
2022/09/25 04:18:42;;;;;;;8.52;2.60;;;9.40;99.90;;;;;;4962616;28;20086;-80
2022/09/25 04:21:41;;;;;;;5.65;2.80;;;9.40;99.90;;;;;;5037659;28;20041;-80
2022/09/25 04:34:08;;;;;;;4.35;2.50;;;9.30;99.90;;;;;;5007149;28;20044;-80
2022/09/25 04:36:57;;;;;;;7.50;2.83;;;9.30;99.90;;;;;;4991553;28;20420;-80
2022/09/25 04:39:56;;;;;;;5.95;2.78;;;9.30;99.90;;;;;;5026819;28;20045;-79
2022/09/25 04:42:42;;;;;;;7.55;2.53;;;9.30;99.90;;;;;;5012899;28;20041;-80
2022/09/25 04:45:29;;;;;;;9.77;2.55;;;9.30;99.90;;;;;;5029995;28;20067;-79
2022/09/25 04:51:14;;;;;;;6.43;2.85;;;9.40;99.90;;;;;;5010108;28;20045;-79
2022/09/25 04:53:46;;;;;;;6.22;2.75;;;9.40;99.90;;;;;;4998855;28;20061;-79
2022/09/25 04:56:17;;;;;;;8.00;2.90;;;9.40;99.90;;;;;;4996899;28;20050;-79
2022/09/25 04:59:03;;;;;;;5.50;3.00;;;9.40;99.90;;;;;;5014592;28;20509;-79
2022/09/25 05:01:52;;;;;;;9.07;3.20;;;9.50;99.90;;;;;;5010389;28;20402;-80
2022/09/25 05:04:26;;;;;;;5.38;2.95;;;9.50;99.90;;;;;;5026469;28;20489;-80
2022/09/25 05:07:13;;;;;;;7.57;2.72;;;9.50;99.90;;;;;;5039372;28;20050;-80
2022/09/25 05:09:52;;;;;;;6.57;2.47;;;9.50;99.90;;;;;;5049723;28;20059;-80
2022/09/25 05:12:42;;;;;;;8.13;2.58;;;9.60;99.90;;;;;;5055393;28;20512;-79
2022/09/25 05:15:11;;;;;;;7.95;2.85;;;9.60;99.90;;;;;;5038517;28;20036;-79
2022/09/25 05:20:54;;;;;;;6.07;2.28;;;9.60;99.90;;;;;;5040867;28;20045;-80
2022/09/25 05:23:34;;;;;;;7.97;3.00;;;9.60;99.90;;;;;;5054568;28;20124;-80
2022/09/25 05:30:10;;;;;;;7.95;2.40;;;9.70;99.90;;;;;;5061152;28;20044;-79
2022/09/25 05:32:36;;;;;;;8.13;2.55;;;9.70;99.90;;;;;;5047862;28;20044;-79
2022/09/25 05:35:08;;;;;;;7.53;2.78;;;9.60;99.90;;;;;;5027986;28;20048;-78
2022/09/25 05:41:32;;;;;;;9.18;2.40;;;9.70;99.90;;;;;;5067020;28;20479;-80
2022/09/25 05:44:31;;;;;;;8.15;1.90;;;9.70;99.90;;;;;;5046556;28;20094;-80
2022/09/25 05:47:37;;;;;;;5.70;2.20;;;9.70;99.90;;;;;;5073198;28;20048;-79
2022/09/25 05:53:34;;;;;;;4.95;2.03;;;9.70;99.90;;;;;;5074084;28;20047;-80
2022/09/25 05:56:21;;;;;;;5.75;2.17;;;9.70;99.90;;;;;;5058242;28;20036;-79
2022/09/25 05:58:58;;;;;;;6.35;1.80;;;9.70;99.90;;;;;;5074045;28;20048;-79
2022/09/25 06:01:40;;;;;;;8.25;2.30;;;9.70;99.90;;;;;;5041821;28;20040;-80
2022/09/25 06:04:25;;;;;;;7.07;2.20;;;9.70;99.90;;;;;;5054852;28;20048;-80
2022/09/25 06:07:24;;;;;;;7.35;2.10;;;9.70;99.90;;;;;;5058636;28;20068;-80
2022/09/25 06:10:08;;;;;;;6.10;2.10;;;9.70;99.90;;;;;;5056984;28;20044;-80
2022/09/25 06:12:43;;;;;;;6.13;2.30;;;9.70;99.90;;;;;;5038838;28;20037;-79
2022/09/25 06:15:16;;;;;;;7.68;2.40;;;9.70;99.90;;;;;;5059992;28;20047;-80
2022/09/25 06:17:45;;;;;;;4.85;2.25;;;9.80;99.90;;;;;;5070068;28;20396;-80
2022/09/25 06:20:52;;;;;;;7.00;2.40;;;9.80;99.90;;;;;;5063449;28;20130;-79
2022/09/25 06:23:23;;;;;;;6.75;2.35;;;9.90;99.90;;;;;;5076567;28;20052;-80
2022/09/25 06:26:04;;;;;;;5.07;2.40;;;9.90;99.90;;;;;;5055965;28;20048;-80
2022/09/25 06:28:53;;;;;;;7.20;2.65;;;10.00;99.90;;;;;;5092145;28;20052;-79
2022/09/25 06:34:56;;;;;;;4.47;2.10;;;10.10;99.90;;;;;;5069400;28;20480;-79
2022/09/25 06:37:49;;;;;;;5.57;1.97;;;10.20;99.90;;;;;;5053463;28;20063;-80
2022/09/25 06:43:53;;;;;;;4.70;2.20;;;10.30;99.90;;;;;;5033839;28;20504;-79
2022/09/25 06:47:12;;;;;;;4.28;2.30;;;10.40;99.90;;;;;;5022028;28;20611;-79
2022/09/25 06:50:06;;;;;;;10.02;2.53;;;10.50;99.90;;;;;;5016081;28;20041;-80
2022/09/25 06:52:59;;;;;;;3.85;1.98;;;10.60;99.90;;;;;;5040198;28;20516;-79
2022/09/25 06:55:36;;;;;;;10.02;2.10;;;10.60;99.90;;;;;;5030244;28;20073;-81
2022/09/25 07:03:43;;;;;;;4.22;1.90;;;10.70;99.90;;;;;;4976326;28;20185;-79
2022/09/25 07:05:04;;;;;;;6.30;2.00;;;10.80;99.90;;;;;;4968099;28;20047;-80
2022/09/25 07:14:07;;;;;;;5.22;1.92;;;11.10;99.90;;;;;;4920311;29;20389;-79
2022/09/25 07:17:04;;;;;;;5.80;2.10;;;11.30;99.90;;;;;;4950278;28;20121;-80
2022/09/25 07:19:51;;;;;;;4.43;1.85;;;11.40;99.90;;;;;;4937506;28;20078;-80
2022/09/25 07:22:20;;;;;;;7.05;1.85;;;11.60;99.90;;;;;;4936645;28;20133;-79
2022/09/25 07:25:03;;;;;;;5.82;1.80;;;11.70;99.90;;;;;;4935916;28;20488;-79
2022/09/25 07:28:06;;;;;;;6.60;1.50;;;11.80;99.90;;;;;;4961216;28;20107;-79
2022/09/25 07:31:32;;;;;;;8.00;1.45;;;11.80;99.90;;;;;;4966532;28;20047;-79
2022/09/25 07:34:01;;;;;;;5.05;1.88;;;11.90;99.90;;;;;;4905494;28;20074;-80
2022/09/25 07:36:46;;;;;;;3.33;1.35;;;12.00;99.90;;;;;;5004260;28;20061;-82
2022/09/25 07:39:12;;;;;;;6.28;1.40;;;12.00;99.90;;;;;;4986313;28;20056;-78
2022/09/25 07:41:56;;;;;;;5.38;1.10;;;12.00;99.90;;;;;;4985588;28;20052;-78
2022/09/25 07:44:31;;;;;;;5.43;1.67;;;12.00;99.90;;;;;;5000959;28;20413;-79
2022/09/25 07:47:47;;;;;;;4.57;1.40;;;12.00;99.90;;;;;;5003280;28;20055;-78
2022/09/25 07:50:44;;;;;;;4.40;1.52;;;12.00;99.90;;;;;;5051818;28;20054;-78
2022/09/25 07:53:16;;;;;;;3.00;1.42;;;12.10;99.90;;;;;;5074525;28;20079;-79
2022/09/25 07:56:07;;;;;;;5.28;1.27;;;12.10;99.90;;;;;;5075783;28;20692;-79
2022/09/25 07:58:44;;;;;;;3.95;1.10;;;12.30;99.90;;;;;;5056785;28;20048;-79
2022/09/25 08:01:12;;;;;;;4.95;1.40;;;12.20;99.90;;;;;;5043024;28;20047;-78
2022/09/25 08:03:40;;;;;;;4.15;1.23;;;12.20;99.90;;;;;;5070014;28;20043;-79
2022/09/25 08:06:17;;;;;;;4.35;1.08;;;12.20;99.90;;;;;;5042648;28;20059;-79
2022/09/25 08:08:51;;;;;;;4.88;1.17;;;12.30;99.90;;;;;;5057198;28;20058;-79
2022/09/25 08:11:40;;;;;;;6.03;1.10;;;12.40;99.90;;;;;;5056347;28;20051;-79
2022/09/25 08:17:12;;;;;;;4.18;1.45;;;12.50;99.90;;;;;;5068256;28;20040;-79
2022/09/25 08:22:56;;;;;;;4.53;1.15;;;12.50;99.90;;;;;;5042673;28;20094;-80
2022/09/25 08:25:24;;;;;;;4.50;1.13;;;12.60;99.90;;;;;;5051133;28;20052;-79
2022/09/25 08:28:42;;;;;;;3.60;1.08;;;12.60;99.90;;;;;;5059517;28;20043;-79
2022/09/25 08:31:20;;;;;;;3.38;0.90;;;12.70;99.90;;;;;;5045960;28;20061;-79
2022/09/25 08:33:53;;;;;;;4.05;1.10;;;12.70;99.90;;;;;;5033862;28;20068;-80
2022/09/25 08:36:46;;;;;;;4.72;1.08;;;12.70;99.90;;;;;;5017425;28;20077;-78
2022/09/25 08:39:40;;;;;;;3.17;1.10;;;12.70;99.90;;;;;;5034875;28;20036;-79
2022/09/25 08:42:58;;;;;;;6.20;1.20;;;12.80;99.90;;;;;;5026537;28;20176;-78
2022/09/25 08:49:25;;;;;;;4.10;0.90;;;13.00;99.90;;;;;;5025712;28;20044;-80
2022/09/25 08:54:46;;;;;;;2.45;0.70;;;13.00;99.90;;;;;;5033840;28;20044;-80
2022/09/25 09:00:39;;;;;;;;;;;;;;;;;;;;;
2022/09/25 09:03:18;;;;;;;7.30;1.45;;;13.10;99.90;;;;;;5040764;28;20059;-80
2022/09/25 09:06:13;;;;;;;4.25;0.90;;;13.10;99.90;;;;;;5050153;28;20040;-80
2022/09/25 09:15:36;;;;;;;4.63;0.93;;;13.30;99.90;;;;;;5062157;28;20048;-80
2022/09/25 09:19:05;;;;;;;2.70;0.80;;;13.40;99.90;;;;;;5030144;28;20051;-80
2022/09/25 09:21:51;;;;;;;4.00;0.98;;;13.50;99.90;;;;;;5011576;28;20512;-80
2022/09/25 09:24:48;;;;;;;4.45;0.90;;;13.60;99.90;;;;;;5057082;28;20087;-80
2022/09/25 09:30:53;;;;;;;5.38;1.20;;;13.70;99.90;;;;;;5042055;28;20055;-80
2022/09/25 09:33:59;;;;;;;6.15;1.10;;;13.70;99.90;;;;;;5054692;28;20178;-81
2022/09/25 09:40:09;;;;;;;3.95;0.80;;;13.90;99.90;;;;;;5033491;28;20086;-81
2022/09/25 09:43:04;;;;;;;2.95;0.77;;;14.00;99.90;;;;;;4999018;28;21075;-81
2022/09/25 09:46:14;;;;;;;3.65;0.80;;;14.10;99.90;;;;;;4985879;28;20064;-80
2022/09/25 09:49:00;;;;;;;6.65;1.92;;;14.20;99.90;;;;;;5007526;28;20053;-82
2022/09/25 09:51:52;;;;;;;;;;;14.40;99.90;;;;;;5055731;28;20037;-79
2022/09/25 10:00:58;;;;;;;4.50;1.30;;;14.60;99.90;;;;;;5071772;28;20039;-81
2022/09/25 10:07:26;;;;;;;4.47;1.20;;;14.60;99.90;;;;;;4996421;28;20033;-80
2022/09/25 10:16:32;;;;;;;4.05;1.10;;;14.40;99.90;;;;;;5038609;28;20491;-80
2022/09/25 10:22:55;;;;;;;;;;;;;;;;;;;;;
2022/09/25 10:29:17;;;;;;;5.15;0.93;;;14.80;99.90;;;;;;5070520;28;20050;-81
2022/09/25 10:35:39;;;;;;;;;;;;;;;;;;;;;
2022/09/25 10:38:36;;;;;;;1.05;0.22;;;14.80;99.90;;;;;;5083335;28;20054;-80
2022/09/25 10:44:50;;;;;;;3.25;0.57;;;14.30;99.90;;;;;;5040668;28;20036;-80
2022/09/25 10:50:18;;;;;;;2.55;0.50;;;13.80;99.90;;;;;;5071669;28;20041;-80
2022/09/25 10:53:10;;;;;;;1.40;0.60;;;13.60;99.90;;;;;;5062641;28;20045;-80
2022/09/25 10:55:50;;;;;;;1.20;0.47;;;13.60;99.90;;;;;;5054878;28;20055;-80
2022/09/25 10:58:36;;;;;;;1.77;0.50;;;13.50;99.90;;;;;;5069720;28;20052;-79
2022/09/25 11:01:12;;;;;;;0.82;0.38;;;13.50;99.90;;;;;;5066818;28;20043;-79
2022/09/25 11:04:34;;;;;;;1.92;0.85;;;13.50;99.90;;;;;;5083658;28;20127;-79
2022/09/25 11:07:35;;;;;;;1.90;0.60;;;13.50;99.90;;;;;;5070685;28;20589;-79
2022/09/25 11:10:22;;;;;;;1.10;0.30;;;13.50;99.90;;;;;;5063845;28;20044;-79
2022/09/25 11:12:49;;;;;;;1.15;0.50;;;13.60;99.90;;;;;;5069158;28;20048;-78
2022/09/25 11:15:22;;;;;;;1.35;1.08;;;13.70;99.90;;;;;;5045178;28;20452;-80
2022/09/25 11:18:51;;;;;;;3.85;2.25;;;13.80;99.90;;;;;;5059988;28;20558;-81
2022/09/25 11:21:45;;;;;;;1.90;1.00;;;13.90;99.90;;;;;;5071842;28;20045;-80
2022/09/25 11:24:41;;;;;;;1.60;0.70;;;14.00;99.90;;;;;;5075655;28;20117;-79
2022/09/25 11:27:56;;;;;;;1.00;0.60;;;14.10;99.90;;;;;;5051925;28;20063;-79
2022/09/25 11:30:42;;;;;;;1.90;0.60;;;14.20;99.90;;;;;;5036791;28;20077;-80
2022/09/25 11:34:02;;;;;;;2.65;1.10;;;14.40;99.90;;;;;;5058911;28;20430;-80
2022/09/25 11:37:07;;;;;;;1.80;0.57;;;14.50;99.90;;;;;;5027655;28;20048;-77
2022/09/25 11:47:05;;;;;;;1.13;0.90;;;14.70;99.90;;;;;;5064117;28;20499;-79
2022/09/25 11:49:57;;;;;;;1.88;0.70;;;14.80;99.90;;;;;;5053563;28;20041;-79
2022/09/25 11:52:52;;;;;;;4.75;0.77;;;14.80;99.90;;;;;;5054506;28;20388;-79
2022/09/25 11:59:20;;;;;;;1.92;0.40;;;14.80;99.90;;;;;;5089727;28;20496;-79
2022/09/25 12:02:37;;;;;;;2.42;0.60;;;14.70;99.90;;;;;;5072701;28;20089;-79
2022/09/25 12:05:51;;;;;;;1.85;0.68;;;14.80;99.90;;;;;;5043383;28;20552;-78
2022/09/25 12:08:23;;;;;;;2.13;0.82;;;14.80;99.90;;;;;;5070456;28;20047;-79
2022/09/25 12:12:00;;;;;;;1.02;0.50;;;14.90;99.90;;;;;;5057481;28;20043;-79
2022/09/25 12:14:37;;;;;;;2.75;0.70;;;15.00;99.90;;;;;;4968193;28;20053;-80
2022/09/25 12:17:07;;;;;;;;;;;15.20;99.90;;;;;;5073002;28;20169;-80
2022/09/25 12:20:08;;;;;;;2.38;0.55;;;15.20;99.90;;;;;;5076797;28;19924;-78
2022/09/25 12:22:55;;;;;;;2.08;0.60;;;15.20;99.90;;;;;;5071139;28;20091;-79
2022/09/25 12:26:17;;;;;;;1.42;0.60;;;15.20;99.90;;;;;;5060435;28;20065;-79
2022/09/25 12:29:18;;;;;;;2.13;0.70;;;15.20;99.90;;;;;;5076741;28;20404;-79
2022/09/25 12:34:57;;;;;;;;;;;15.20;99.90;;;;;;5074442;28;20062;-80
2022/09/25 12:37:45;;;;;;;3.95;0.80;;;15.10;99.90;;;;;;5079331;28;19927;-79
2022/09/25 12:40:42;;;;;;;3.58;0.70;;;15.10;99.90;;;;;;5072616;28;20055;-80
2022/09/25 12:43:17;;;;;;;1.35;0.40;;;15.10;99.90;;;;;;5031800;28;20044;-80
2022/09/25 12:52:33;;;;;;;1.52;0.65;;;15.20;99.90;;;;;;5045095;28;20040;-80
2022/09/25 12:59:19;;;;;;;2.70;1.05;;;15.30;99.90;;;;;;4993089;28;20046;-79
2022/09/25 13:05:17;;;;;;;1.98;0.70;;;15.50;99.90;;;;;;5064688;28;20388;-80
2022/09/25 13:08:20;;;;;;;2.97;0.70;;;15.40;99.90;;;;;;5066979;28;20036;-80
2022/09/25 13:11:02;;;;;;;3.60;1.10;;;15.60;99.90;;;;;;5079737;28;20047;-79
2022/09/25 13:13:38;;;;;;;2.42;0.75;;;15.70;99.90;;;;;;5071116;28;20106;-78
2022/09/25 13:16:37;;;;;;;2.65;0.73;;;15.70;99.90;;;;;;5081073;28;20142;-79
2022/09/25 13:19:24;;;;;;;5.22;0.70;;;15.70;99.90;;;;;;5055552;28;20101;-79
2022/09/25 13:22:31;;;;;;;3.80;0.95;;;15.70;99.90;;;;;;5064432;28;20039;-79
2022/09/25 13:24:59;;;;;;;4.25;0.75;;;15.80;99.90;;;;;;5035703;28;20103;-79
2022/09/25 13:27:48;;;;;;;1.77;0.70;;;15.70;99.90;;;;;;5062815;28;20083;-79
2022/09/25 13:30:35;;;;;;;2.75;0.70;;;15.70;99.90;;;;;;5073034;28;20044;-80
2022/09/25 13:33:36;;;;;;;3.17;0.60;;;15.60;99.90;;;;;;5045061;28;20087;-80
2022/09/25 13:36:22;;;;;;;3.35;1.02;;;15.60;99.90;;;;;;5089604;28;20044;-78
2022/09/25 13:42:09;;;;;;;2.72;0.90;;;15.60;99.90;;;;;;5070712;28;20075;-79
2022/09/25 13:44:50;;;;;;;3.00;0.80;;;15.50;99.90;;;;;;5053958;28;20041;-79
2022/09/25 13:47:51;;;;;;;2.78;0.73;;;15.50;99.90;;;;;;5077355;28;20052;-79
2022/09/25 13:50:50;;;;;;;2.85;0.63;;;15.50;99.90;;;;;;5071174;28;20480;-79
2022/09/25 13:53:26;;;;;;;5.03;1.23;;;15.60;99.90;;;;;;5054606;28;20243;-79
2022/09/25 13:56:14;;;;;;;2.67;0.80;;;15.60;99.90;;;;;;5071841;28;20044;-79
2022/09/25 13:59:15;;;;;;;3.05;0.70;;;15.60;99.90;;;;;;5054081;28;20044;-79
2022/09/25 14:05:26;;;;;;;2.83;1.38;;;15.60;99.90;;;;;;5087561;28;20105;-80
2022/09/25 14:11:15;;;;;;;4.78;0.80;;;15.50;99.90;;;;;;5054783;28;20053;-79
2022/09/25 14:13:55;;;;;;;2.60;0.75;;;15.50;99.90;;;;;;5053741;28;20044;-79
2022/09/25 14:16:57;;;;;;;2.00;0.77;;;15.50;99.90;;;;;;5068382;28;20056;-79
2022/09/25 14:19:41;;;;;;;3.53;0.60;;;15.40;99.90;;;;;;5011031;28;20036;-80
2022/09/25 14:23:17;;;;;;;4.55;1.42;;;15.40;99.90;;;;;;5060231;28;20079;-80
2022/09/25 14:25:46;;;;;;;1.25;0.60;;;15.50;99.90;;;;;;5072656;28;20531;-79
2022/09/25 14:28:26;;;;;;;2.63;0.90;;;15.60;99.90;;;;;;5058744;28;20048;-80
2022/09/25 14:31:15;;;;;;;3.08;0.80;;;15.70;99.90;;;;;;5057215;28;20032;-80
2022/09/25 14:34:14;;;;;;;1.98;0.52;;;15.70;99.90;;;;;;5054211;28;20044;-79
2022/09/25 14:37:18;;;;;;;1.60;0.65;;;15.70;99.90;;;;;;5072003;28;20036;-79
2022/09/25 14:40:20;;;;;;;;;;;;;;;;;;;;;
2022/09/25 14:43:33;;;;;;;3.40;0.70;;;15.90;99.90;;;;;;5081286;28;20372;-80
2022/09/25 14:50:00;;;;;;;2.42;0.63;;;16.00;99.90;;;;;;5059504;28;20071;-79
2022/09/25 14:59:05;;;;;;;2.47;0.50;;;15.90;99.90;;;;;;5062453;28;20120;-79
2022/09/25 15:01:49;;;;;;;3.40;0.85;;;15.90;99.90;;;;;;5067666;28;20122;-79
2022/09/25 15:07:43;;;;;;;2.72;0.65;;;15.90;99.90;;;;;;5065068;28;20040;-79
2022/09/25 15:10:54;;;;;;;4.03;0.70;;;15.90;99.90;;;;;;5073559;28;20040;-79
2022/09/25 15:13:48;;;;;;;2.35;0.90;;;15.70;99.90;;;;;;5043611;28;20044;-79
2022/09/25 15:19:47;;;;;;;1.40;0.65;;;15.60;99.90;;;;;;5065815;28;20391;-78
2022/09/25 15:22:26;;;;;;;3.60;0.75;;;15.60;99.90;;;;;;5055719;28;20075;-79
2022/09/25 15:25:11;;;;;;;5.38;0.90;;;15.50;99.90;;;;;;5035452;28;20055;-77
2022/09/25 15:28:00;;;;;;;2.75;0.80;;;15.40;99.90;;;;;;5071599;28;20044;-79
2022/09/25 15:31:03;;;;;;;2.90;0.77;;;15.30;99.90;;;;;;5056126;28;20047;-78
2022/09/25 15:39:29;;;;;;;3.35;0.90;;;15.10;99.90;;;;;;5057117;28;20094;-79
2022/09/25 15:41:59;;;;;;;3.63;1.00;;;15.00;99.90;;;;;;5055630;28;20052;-78
2022/09/25 15:44:41;;;;;;;3.45;1.02;;;15.10;99.90;;;;;;5056844;28;20105;-79
2022/09/25 15:47:37;;;;;;;3.33;1.00;;;15.20;99.90;;;;;;5074342;28;20043;-80
2022/09/25 15:50:23;;;;;;;5.78;1.20;;;15.30;99.90;;;;;;5057517;28;20040;-80
2022/09/25 15:56:36;;;;;;;2.28;0.77;;;15.60;99.90;;;;;;5074113;28;20131;-79
2022/09/25 16:06:07;;;;;;;3.63;0.88;;;15.80;99.90;;;;;;5059161;28;20404;-80
2022/09/25 16:08:49;;;;;;;2.92;0.77;;;15.80;99.90;;;;;;5058227;28;20055;-80
2022/09/25 16:11:26;;;;;;;2.45;0.80;;;15.70;99.90;;;;;;5048798;28;20495;-81
2022/09/25 16:14:34;;;;;;;2.85;1.13;;;15.70;99.90;;;;;;5073228;28;20184;-79
2022/09/25 16:17:53;;;;;;;7.45;1.00;;;15.70;99.90;;;;;;5054824;28;20503;-78
2022/09/25 16:20:26;;;;;;;3.50;0.93;;;15.60;99.90;;;;;;5071467;28;20131;-79
2022/09/25 16:23:00;;;;;;;3.85;1.13;;;15.50;99.90;;;;;;5072176;28;20124;-82
2022/09/25 16:26:06;;;;;;;4.13;1.30;;;15.40;99.90;;;;;;5070586;28;20048;-81
2022/09/25 16:28:36;;;;;;;3.88;1.20;;;15.30;99.90;;;;;;5071786;28;20492;-79
2022/09/25 16:31:16;;;;;;;3.92;0.90;;;15.30;99.90;;;;;;5072221;28;20044;-79
2022/09/25 16:34:00;;;;;;;2.83;1.15;;;15.20;99.90;;;;;;5067871;28;20055;-80
2022/09/25 16:40:13;;;;;;;3.13;1.00;;;15.10;99.90;;;;;;5070050;28;20123;-79
2022/09/25 16:46:01;;;;;;;2.70;0.93;;;14.90;99.90;;;;;;5018644;28;20061;-79
2022/09/25 16:48:39;;;;;;;2.83;0.98;;;14.90;99.90;;;;;;5031919;28;20424;-80
2022/09/25 16:51:12;;;;;;;6.18;1.20;;;14.80;99.90;;;;;;5011051;28;20131;-79
2022/09/25 16:53:43;;;;;;;;;;;14.80;99.90;;;;;;5031305;28;20182;-80
2022/09/25 16:56:33;;;;;;;4.40;1.20;;;14.80;99.90;;;;;;5029390;28;20007;-79
2022/09/25 16:59:03;;;;;;;3.33;1.00;;;14.70;99.90;;;;;;5011608;28;20091;-80
2022/09/25 17:02:01;;;;;;;4.30;1.40;;;14.70;99.90;;;;;;5016529;28;20067;-80
2022/09/25 17:04:40;;;;;;;5.97;1.42;;;14.70;99.90;;;;;;5024940;28;20090;-80
2022/09/25 17:10:08;;;;;;;5.15;1.00;;;14.60;99.90;;;;;;5025065;28;20055;-80
2022/09/25 17:13:03;;;;;;;6.97;1.45;;;14.60;99.90;;;;;;5017248;28;20076;-80
2022/09/25 17:18:59;;;;;;;3.63;1.02;;;14.50;99.90;;;;;;5099619;28;20048;-80
2022/09/25 17:21:32;;;;;;;5.38;1.20;;;14.40;99.90;;;;;;5070463;28;20530;-80
2022/09/25 17:24:01;;;;;;;3.60;1.42;;;14.40;99.90;;;;;;5063694;28;20055;-80
2022/09/25 17:26:39;;;;;;;3.20;1.15;;;14.30;99.90;;;;;;5072227;28;20094;-80
2022/09/25 17:29:31;;;;;;;2.92;0.95;;;14.30;99.90;;;;;;5051996;28;20502;-80
2022/09/25 17:32:22;;;;;;;3.70;1.13;;;14.20;99.90;;;;;;5055717;28;20036;-81
2022/09/25 17:34:57;;;;;;;3.95;1.50;;;14.10;99.90;;;;;;5046588;28;20048;-81
2022/09/25 17:37:28;;;;;;;8.80;2.05;;;14.00;99.90;;;;;;5067548;28;20046;-81
2022/09/25 17:39:59;;;;;;;5.35;2.13;;;13.90;99.90;;;;;;5064692;28;20408;-80
2022/09/25 17:42:53;;;;;;;6.15;2.50;;;13.90;99.90;;;;;;5042861;28;20054;-80
2022/09/25 17:46:08;;;;;;;6.72;2.20;;;13.70;99.90;;;;;;5056975;28;20068;-80
2022/09/25 17:48:50;;;;;;;6.70;2.30;;;13.70;99.90;;;;;;4978312;28;20041;-80
2022/09/25 17:51:27;;;;;;;6.05;2.25;;;13.60;99.90;;;;;;5001702;28;20128;-80
2022/09/25 17:53:58;;;;;;;6.18;2.30;;;13.50;99.90;;;;;;5040335;28;20044;-80
2022/09/25 17:56:38;;;;;;;5.57;2.42;;;13.40;99.90;;;;;;5064286;28;20051;-79
2022/09/25 17:59:10;;;;;;;7.13;2.45;;;13.40;99.90;;;;;;5057886;28;20048;-80
2022/09/25 18:02:12;;;;;;;;;;;;;;;;;;;;;
2022/09/25 18:04:40;;;;;;;6.63;3.03;;;13.30;99.90;;;;;;5062124;28;20042;-84
2022/09/25 18:10:05;;;;;;;8.65;3.45;;;13.20;99.90;;;;;;5090723;28;20079;-81
2022/09/25 18:16:07;;;;;;;;;;;;;;;;;;;;;
2022/09/25 18:24:13;;;;;;;8.88;2.95;;;13.00;99.90;;;;;;5072218;28;20066;-81
2022/09/25 18:29:36;;;;;;;9.90;4.18;;;13.00;99.90;;;;;;5077783;28;20454;-82
2022/09/25 18:32:22;;;;;;;12.32;7.20;;;13.00;99.90;;;;;;5046006;28;20051;-83
2022/09/25 18:35:39;;;;;;;10.10;7.00;;;12.90;99.90;;;;;;5070358;28;20447;-83
2022/09/25 18:38:30;;;;;;;10.48;5.35;;;12.90;99.90;;;;;;5083942;28;20408;-83
2022/09/25 18:41:01;;;;;;;10.90;5.30;;;12.90;99.90;;;;;;5062058;28;20071;-82
2022/09/25 18:46:44;;;;;;;14.45;6.22;;;12.80;99.90;;;;;;5042698;28;20041;-83
2022/09/25 18:49:25;;;;;;;8.88;5.22;;;12.80;99.90;;;;;;5034125;28;20059;-84
2022/09/25 18:52:04;;;;;;;7.50;4.00;;;12.70;99.90;;;;;;5072151;28;20104;-84
2022/09/25 18:54:43;;;;;;;5.78;2.83;;;12.70;99.90;;;;;;5051880;28;20545;-84
2022/09/25 18:57:29;;;;;;;4.25;1.90;;;12.70;99.90;;;;;;5061235;28;20143;-82
2022/09/25 19:00:39;;;;;;;4.45;1.88;;;12.60;99.90;;;;;;5055246;28;20380;-83
2022/09/25 19:03:12;;;;;;;3.38;1.70;;;12.60;99.90;;;;;;5035511;28;20117;-83
2022/09/25 19:06:05;;;;;;;5.53;1.60;;;12.50;99.90;;;;;;5049089;28;20112;-83
2022/09/25 19:08:34;;;;;;;3.65;1.58;;;12.50;99.90;;;;;;5033944;28;20136;-84
2022/09/25 19:11:35;;;;;;;3.78;1.60;;;12.50;99.90;;;;;;4991028;28;20140;-84
2022/09/25 19:14:15;;;;;;;4.03;1.40;;;12.50;99.90;;;;;;4998739;28;20098;-83
2022/09/25 19:17:21;;;;;;;4.30;1.60;;;12.40;99.90;;;;;;5027550;28;20044;-83
2022/09/25 19:20:16;;;;;;;5.03;1.30;;;12.40;99.90;;;;;;4991137;28;20089;-83